createdAt,value
2022-10-07T00:02:14.930Z,0
2022-10-07T00:07:16.447Z,0
2022-10-07T00:12:18.113Z,0
2022-10-07T00:17:19.771Z,0
2022-10-07T00:22:21.425Z,0
2022-10-07T00:27:22.877Z,0.88715
2022-10-07T00:32:24.393Z,0.88715
2022-10-07T00:37:25.895Z,0
2022-10-07T00:42:27.390Z,0
2022-10-07T00:47:29.223Z,0.88715
2022-10-07T00:52:30.899Z,0
2022-10-07T00:57:32.613Z,0
2022-10-07T01:02:34.432Z,0
2022-10-07T01:07:35.932Z,0.88715
2022-10-07T01:12:37.557Z,0
2022-10-07T01:17:39.495Z,0
2022-10-07T01:22:40.931Z,0
2022-10-07T01:27:43.126Z,0
2022-10-07T01:32:45.234Z,0
2022-10-07T01:37:47.430Z,0
2022-10-07T01:42:49.452Z,0
2022-10-07T01:47:51.568Z,0
2022-10-07T01:52:53.299Z,0
2022-10-07T01:57:55.015Z,0
2022-10-07T02:02:56.800Z,0
2022-10-07T02:07:58.442Z,0
2022-10-07T02:12:59.987Z,0
2022-10-07T02:18:01.629Z,0
2022-10-07T02:23:03.453Z,0
2022-10-07T02:28:05.042Z,0
2022-10-07T02:33:06.739Z,0
2022-10-07T02:38:08.391Z,0
2022-10-07T02:43:09.965Z,0
2022-10-07T02:48:11.597Z,0
2022-10-07T02:53:13.352Z,0
2022-10-07T02:58:15.103Z,0
2022-10-07T03:03:17.179Z,0
2022-10-07T03:08:18.641Z,0
2022-10-07T03:13:20.430Z,0.88715
2022-10-07T03:18:22.400Z,0.88715
2022-10-07T03:23:24.137Z,0.4148
2022-10-07T03:28:25.946Z,1.2444
2022-10-07T03:33:27.725Z,1.54065
2022-10-07T03:38:29.533Z,5.03685
2022-10-07T03:43:31.350Z,9.73785
2022-10-07T03:48:33.302Z,13.7216
2022-10-07T03:53:35.073Z,23.1457
2022-10-07T03:58:36.789Z,42.2335
2022-10-07T04:03:38.777Z,50.201
2022-10-07T04:08:40.507Z,67.2237
2022-10-07T04:13:42.287Z,85.2238
2022-10-07T04:18:44.482Z,103.5928
2022-10-07T04:23:46.267Z,125.70595
2022-10-07T04:28:48.126Z,133.6183
2022-10-07T04:33:50.187Z,142.85795
2022-10-07T04:38:51.925Z,140.18435
2022-10-07T04:43:57.535Z,148.72235
2022-10-07T04:48:59.898Z,165.1537
2022-10-07T04:54:01.653Z,174.3192
2022-10-07T04:59:03.144Z,197.74065
2022-10-07T05:04:04.790Z,222.0292
2022-10-07T05:09:06.448Z,262.93355
2022-10-07T05:14:08.140Z,294.8054
2022-10-07T05:19:10.304Z,347.661
2022-10-07T05:24:11.943Z,376.39535
2022-10-07T05:29:13.567Z,417.09255
2022-10-07T05:34:15.411Z,423.92275
2022-10-07T05:39:17.230Z,449.57475
2022-10-07T05:44:18.863Z,499.27755
2022-10-07T05:49:20.859Z,511.6167
2022-10-07T05:54:22.491Z,481.15
2022-10-07T05:59:24.184Z,431.8161
2022-10-07T06:04:26.043Z,448.9227
2022-10-07T06:09:28.013Z,473.17325
2022-10-07T06:14:29.819Z,539.1512
2022-10-07T06:19:31.891Z,583.4081
2022-10-07T06:24:33.689Z,614.3234
2022-10-07T06:29:35.536Z,619.34155
2022-10-07T06:34:37.295Z,579.4336
2022-10-07T06:39:39.008Z,576.48845
2022-10-07T06:44:40.741Z,569.2036
2022-10-07T06:49:42.725Z,604.24355
2022-10-07T06:54:44.490Z,688.4042
2022-10-07T06:59:46.249Z,751.42355
2022-10-07T07:04:48.496Z,784.5277
2022-10-07T07:09:50.337Z,791.0196
2022-10-07T07:14:52.081Z,825.7838
2022-10-07T07:19:54.216Z,841.3499
2022-10-07T07:24:55.857Z,840.8897
2022-10-07T07:29:57.596Z,870.1584
2022-10-07T07:34:59.233Z,859.72075
2022-10-07T07:40:00.894Z,868.8691
2022-10-07T07:45:02.493Z,887.7363
2022-10-07T07:50:04.247Z,900.8684
2022-10-07T07:55:05.688Z,923.46075
2022-10-07T08:00:07.255Z,944.4672
2022-10-07T08:05:09.089Z,972.2603
2022-10-07T08:10:10.872Z,961.5279
2022-10-07T08:15:12.402Z,987.79025
2022-10-07T08:20:14.094Z,1008.0589
2022-10-07T08:25:15.914Z,1033.1594
2022-10-07T08:30:17.427Z,1068.7907
2022-10-07T08:35:19.075Z,1054.31415
2022-10-07T08:40:20.690Z,1090.3695
2022-10-07T08:45:22.428Z,1119.9881
2022-10-07T08:50:24.394Z,1133.04605
2022-10-07T08:55:26.257Z,1147.63475
2022-10-07T09:00:28.034Z,1148.87075
2022-10-07T09:05:30.232Z,1190.62505
2022-10-07T09:10:31.892Z,1178.15845
2022-10-07T09:15:33.702Z,1147.06425
2022-10-07T09:20:35.764Z,1158.40885
2022-10-07T09:25:37.435Z,1200.2906
2022-10-07T09:30:39.054Z,1226.977
2022-10-07T09:35:40.834Z,1261.81535
2022-10-07T09:40:42.560Z,1277.7865
2022-10-07T09:45:44.314Z,1306.13295
2022-10-07T09:50:47.001Z,1346.54095
2022-10-07T09:55:48.749Z,1344.69645
2022-10-07T10:00:50.428Z,1365.0754
2022-10-07T10:05:52.398Z,1387.1144
2022-10-07T10:10:54.161Z,1432.59385
2022-10-07T10:15:55.979Z,1437.97905
2022-10-07T10:20:57.834Z,1432.13365
2022-10-07T10:25:59.629Z,1449.7097
2022-10-07T10:31:01.442Z,1457.6392
2022-10-07T10:36:03.113Z,1394.23565
2022-10-07T10:41:04.622Z,1406.96085
2022-10-07T10:46:06.190Z,1427.28465
2022-10-07T10:51:08.198Z,1429.62735
2022-10-07T10:56:10.031Z,1457.4566
2022-10-07T11:01:11.814Z,1462.2143
2022-10-07T11:06:15.660Z,1494.0273
2022-10-07T11:11:18.456Z,1597.81985
2022-10-07T11:16:20.231Z,1634.75945
2022-10-07T11:21:22.513Z,1524.14225
2022-10-07T11:26:24.274Z,1618.67615
2022-10-07T11:31:26.108Z,1611.7412
2022-10-07T11:36:28.107Z,1613.9166
2022-10-07T11:41:29.832Z,1617.99165
2022-10-07T11:46:31.720Z,1626.1056
2022-10-07T11:51:33.834Z,1647.1102
2022-10-07T11:56:35.441Z,1634.7349
2022-10-07T12:01:37.222Z,1627.04315
2022-10-07T12:06:38.712Z,1654.2449
2022-10-07T12:11:40.160Z,1723.2181
2022-10-07T12:16:42.458Z,1644.59835
2022-10-07T12:21:44.267Z,1672.6482
2022-10-07T12:26:45.987Z,1616.65695
2022-10-07T12:31:47.815Z,1565.16665
2022-10-07T12:36:50.012Z,1541.7072
2022-10-07T12:41:51.733Z,1531.47115
2022-10-07T12:46:53.569Z,1427.5683
2022-10-07T12:51:55.877Z,1483.8353
2022-10-07T12:56:57.636Z,1447.43005
2022-10-07T13:01:59.561Z,847.98875
2022-10-07T13:07:01.514Z,1147.8234
2022-10-07T13:12:03.151Z,1205.4135
2022-10-07T13:17:04.869Z,1089.15435
2022-10-07T13:22:06.808Z,944.84585
2022-10-07T13:27:08.665Z,971.142
2022-10-07T13:32:10.730Z,737.82015
2022-10-07T13:37:12.417Z,882.986
2022-10-07T13:42:18.019Z,641.73835
2022-10-07T13:47:22.387Z,614.6622
2022-10-07T13:52:24.560Z,575.93325
2022-10-07T13:57:26.644Z,579.7038
2022-10-07T14:02:28.569Z,525.69795
2022-10-07T14:07:30.710Z,511.07075
2022-10-07T14:12:32.433Z,465.7058
2022-10-07T14:17:34.193Z,350.77395
2022-10-07T14:22:36.144Z,280.8785
2022-10-07T14:27:37.901Z,183.2071
2022-10-07T14:32:39.630Z,134.7403
2022-10-07T14:37:41.564Z,124.1182
2022-10-07T14:42:43.580Z,115.13715
2022-10-07T14:47:45.507Z,117.1851
2022-10-07T14:52:47.756Z,154.95775
2022-10-07T14:57:49.748Z,235.36965
2022-10-07T15:02:51.464Z,195.14305
2022-10-07T15:07:53.214Z,160.4093
2022-10-07T15:12:55.002Z,153.4249
2022-10-07T15:17:56.731Z,127.80905
2022-10-07T15:22:58.846Z,99.185
2022-10-07T15:28:00.679Z,67.5532
2022-10-07T15:33:02.374Z,50.9612
2022-10-07T15:38:04.032Z,41.95415
2022-10-07T15:43:05.487Z,37.27285
2022-10-07T15:48:07.276Z,32.9471
2022-10-07T15:53:08.984Z,31.7619
2022-10-07T15:58:10.738Z,24.9473
2022-10-07T16:03:12.220Z,15.88095
2022-10-07T16:08:14.085Z,8.94785
2022-10-07T16:13:15.588Z,6.91595
2022-10-07T16:18:17.369Z,2.01475
2022-10-07T16:23:19.516Z,1.2444
2022-10-07T16:28:21.288Z,1.3463
2022-10-07T16:33:22.957Z,1.16185
2022-10-07T16:38:24.663Z,0.88715
2022-10-07T16:43:26.693Z,0
2022-10-07T16:48:28.415Z,0
2022-10-07T16:53:30.571Z,0
2022-10-07T16:58:32.204Z,0
2022-10-07T17:03:33.968Z,0
2022-10-07T17:08:40.489Z,0
2022-10-07T17:13:44.694Z,0
2022-10-07T17:18:46.464Z,0
2022-10-07T17:23:48.796Z,0
2022-10-07T17:28:50.603Z,0
2022-10-07T17:33:52.517Z,0
2022-10-07T17:38:53.982Z,0
2022-10-07T17:43:55.809Z,0
2022-10-07T17:48:57.608Z,0
2022-10-07T17:53:59.702Z,0
2022-10-07T17:59:01.238Z,0
2022-10-07T18:04:02.880Z,0.88715
2022-10-07T18:09:04.806Z,0
2022-10-07T18:14:06.292Z,0
2022-10-07T18:19:07.986Z,0
2022-10-07T18:24:09.899Z,0
2022-10-07T18:29:11.361Z,0
2022-10-07T18:34:13.062Z,0.88715
2022-10-07T18:39:15.174Z,0.88715
2022-10-07T18:44:16.744Z,0.88715
2022-10-07T18:49:18.512Z,0
2022-10-07T18:54:20.596Z,0.88715
2022-10-07T18:59:22.051Z,0
2022-10-07T19:04:23.922Z,0
2022-10-07T19:09:25.527Z,0
2022-10-07T19:14:27.347Z,0
2022-10-07T19:19:28.811Z,0
2022-10-07T19:24:30.575Z,0
2022-10-07T19:29:32.277Z,0
2022-10-07T19:34:33.776Z,0
2022-10-07T19:39:35.503Z,0
2022-10-07T19:44:37.010Z,0.88715
2022-10-07T19:49:38.793Z,0
2022-10-07T19:54:40.585Z,0
2022-10-07T19:59:42.311Z,0.88715
2022-10-07T20:04:44.082Z,0
2022-10-07T20:09:45.860Z,0
2022-10-07T20:14:47.598Z,0.88715
2022-10-07T20:19:49.338Z,0.88715
2022-10-07T20:24:51.500Z,0
2022-10-07T20:29:53.254Z,0.88715
2022-10-07T20:34:55.053Z,0
2022-10-07T20:39:56.851Z,0
2022-10-07T20:44:58.586Z,0.88715
2022-10-07T20:50:00.365Z,0
2022-10-07T20:55:02.101Z,0
2022-10-07T21:00:03.773Z,0
2022-10-07T21:05:05.351Z,0
2022-10-07T21:10:07.121Z,0.88715
2022-10-07T21:15:08.799Z,0.88715
2022-10-07T21:20:10.535Z,0.88715
2022-10-07T21:25:12.516Z,0
2022-10-07T21:30:14.213Z,0
2022-10-07T21:35:15.939Z,0
2022-10-07T21:40:17.563Z,0
2022-10-07T21:45:19.312Z,0.88715
2022-10-07T21:50:21.422Z,0.88715
2022-10-07T21:55:23.410Z,0.88715
2022-10-07T22:00:25.269Z,0
2022-10-07T22:05:27.047Z,0.88715
2022-10-07T22:10:29.053Z,0.88715
2022-10-07T22:15:30.798Z,0
2022-10-07T22:20:32.806Z,0
2022-10-07T22:25:34.769Z,0
2022-10-07T22:30:36.607Z,0
2022-10-07T22:35:38.451Z,0.88715
2022-10-07T22:40:40.567Z,0.88715
2022-10-07T22:45:42.293Z,0
2022-10-07T22:50:44.020Z,0
2022-10-07T22:55:47.135Z,0
2022-10-07T23:00:48.877Z,0
2022-10-07T23:05:50.532Z,0
2022-10-07T23:10:52.282Z,0.88715
2022-10-07T23:15:54.071Z,0
2022-10-07T23:20:55.868Z,0
2022-10-07T23:25:57.851Z,0
2022-10-07T23:30:59.761Z,0
2022-10-07T23:36:01.867Z,0
2022-10-07T23:41:03.770Z,0
2022-10-07T23:46:05.731Z,0
2022-10-07T23:51:07.290Z,0
2022-10-07T23:56:09.241Z,0
